Airfield :
LOGIN :

Register | Disclaimer

   EN    FR    IT 

 










Legend :    VFR   Marginal VFR   IFR   Intensive IFR   Very Intensive IFR
Visi :
Ceiling :
>= 8 km
>= 3000ft
5 to 8 km
1000 to 3000 ft
1500m to 5 km
500 to 1000 ft
800 to 1500m
200 to 500 ft
< 800m
< 200 ft
Symbols :   Thunderstorms  Fog  Heavy snow  Heavy precipitations  Wind > 20 kt
SIGMETs :     Misc.  Thunderstorms  Icing  Turbulence  Mountain Waves  Volcanic Ashes







- Airport Elevation : 25 ft
- IATA code : QCY


EGXC - RAF Coningsby

CURRENT METAR :
  • 220750Z 07003KT 9999 BKN030 02/M01 Q1026 BLU NOSIG

EXPIRED METARs :
  • 220650Z 07004KT 9000 HZ BKN030 M00/M01 Q1026 BLU NOSIG
  • 220550Z 07005KT 8000 HZ FEW030 00/M01 Q1026 BLU

TAF TAF EGXC
Valid from the 22 at 09:00 until the 23 at 03:00 UTC


220740Z 2209/2303 09008KT 9999 SCT030
PROB30
TEMPO 2209/2212 SCT020
No reported NOTAMs for that airfield.



MET'MAP, your aeronautical weather chart ! - Copyright ORBIFLY December 2007 - Disclaimer

ORBIFLY MET'MAP TEAM :

Programming & Development : Alexandra Zaïnal
Concept & Development : Baudouin d'Aumeries
Co-Development & Prog : Marc-Olivier Méhu
Technical & hardware support : Manuel Goepfert

Contact : metmap@orbifly.com




SOURCES & CREDITS :

   NOAA